Chippewa Valley Regional Airport
KEAU : now visible

Airfield :











YOU CAN JOIN US ON...

 
LOGIN :

Register | Disclaimer

   EN    FR    IT 

 









Legend :    VFR   Marginal VFR   IFR   Intensive IFR   Very Intensive IFR
Visi :
Ceiling :
>= 8 km
>= 3000ft
5 to 8 km
1000 to 3000 ft
1500m to 5 km
500 to 1000 ft
800 to 1500m
200 to 500 ft
< 800m
< 200 ft
Symbols :   Thunderstorms  Fog  Heavy snow  Heavy precipitations  Wind > 20 kt






- Airport Elevation : 913 ft
- IATA code : EAU


KEAU - Chippewa Valley Regional

CURRENT METAR :
  • 211556Z 15007KT 2 1/2SM RA BR BKN011 BKN017 OVC046 18/16 A2968 RMK AO2 SLP049 P0005 T01780161

EXPIRED METARs :
  • 211503Z 12011KT 10SM -RA FEW055 BKN075 OVC090 18/16 A2968 RMK AO2 P0000 T01780156
  • 211456Z 12012G24KT 10SM -RA BKN011 BKN070 OVC085 18/16 A2969 RMK AO2 RAB12 SLP049 P0001 60001 T01780156 56021
  • 211424Z 12010G16KT 10SM -RA BKN011 BKN070 OVC085 18/16 A2970 RMK AO2 RAB12 P0000 T01780156
  • 211356Z 11011G22KT 10SM FEW011 BKN090 OVC110 18/16 A2969 RMK AO2 RAB17E30 SLP051 P0000 T01830156
  • 211256Z 10008KT 10SM FEW100 18/16 A2969 RMK AO2 RAE1159 PRESFR SLP050 P0000 T01830156
  • 211156Z 14008KT 10SM -RA OVC065 18/16 A2975 RMK AO2 RAB49 SLP070 P0000 60000 70003 T01830156 10189 20172 58003
  • 211056Z 12008KT 10SM OVC046 18/16 A2975 RMK AO2 LTG DSNT NW SLP071 T01830156

TAF KEAU
Valid from the 21 at 16:00 until the 22 at 12:00 UTC


211609Z 2116/2212 12015G24KT 3SM -SHRA BR VCTS BKN011 OVC040CB
FM220000 17013G23KT 4SM -TSRA BR BKN019CB OVC040
TEMPO 2201/2203 1SM TSRA BR OVC008CB
FM220500 21010KT P6SM OVC011
FM220800 25017G28KT P6SM BKN015
KZMP FIR / North America



MET'MAP, your aeronautical weather chart ! - Copyright ORBIFLY December 2007 - Disclaimer

ORBIFLY MET'MAP TEAM :

Programming & Development : Alexandra Zaïnal
Original concept : Baudouin d'Aumeries
Technical & hardware support : Manuel Goepfert
Assistance : Marc-Olivier Méhu




SOURCES & CREDITS :

   NOAA       Earth
Advisory